Time;durP1;ratioP1;P1;durP2;ratioP2;P2;SDS_P1;SDS_P2;PMS_P1;PMS_P2;Temp;Humidity;BMP_temperature;BMP_pressure;BME280_temperature;BME280_humidity;BME280_pressure;Samples;Min_cycle;Max_cycle;Signal;HPM_P1;HPM_P2
2024/01/04 00:00:29;;;;;;;0.53;0.53;;;;;;;8.20;100.00;98588.75;5020830;28;20229;-76
2024/01/04 00:02:56;;;;;;;0.60;0.50;;;;;;;8.16;100.00;98574.72;5033373;28;20215;-76
2024/01/04 00:05:22;;;;;;;0.40;0.40;;;;;;;8.16;100.00;98588.78;5011824;28;20296;-76
2024/01/04 00:07:49;;;;;;;1.17;0.43;;;;;;;8.28;100.00;98593.09;5027931;28;20227;-76
2024/01/04 00:10:17;;;;;;;0.83;0.30;;;;;;;8.27;100.00;98588.69;5032553;28;20207;-76
2024/01/04 00:12:51;;;;;;;0.30;0.30;;;;;;;8.37;100.00;98606.25;5024947;28;20609;-76
2024/01/04 00:15:18;;;;;;;1.03;0.40;;;;;;;8.37;100.00;98598.34;5025771;28;20263;-76
2024/01/04 00:17:45;;;;;;;0.50;0.40;;;;;;;8.41;100.00;98588.66;5035135;28;20258;-76
2024/01/04 00:20:12;;;;;;;1.80;0.47;;;;;;;8.47;100.00;98615.88;5016460;28;20200;-76
2024/01/04 00:22:39;;;;;;;0.67;0.47;;;;;;;8.47;100.00;98613.25;5023483;28;20195;-76
2024/01/04 00:25:06;;;;;;;0.30;0.30;;;;;;;8.43;100.00;98608.88;5039554;22;20590;-73
2024/01/04 00:27:32;;;;;;;0.47;0.40;;;;;;;8.35;100.00;98604.50;5004530;28;20223;-74
2024/01/04 00:29:59;;;;;;;0.87;0.40;;;;;;;8.31;100.00;98603.63;5015198;28;20637;-74
2024/01/04 00:32:25;;;;;;;1.87;0.40;;;;;;;8.30;100.00;98603.63;5029917;28;20211;-74
2024/01/04 00:34:52;;;;;;;0.40;0.40;;;;;;;8.33;100.00;98601.88;5017167;28;20234;-73
2024/01/04 00:37:18;;;;;;;1.73;0.43;;;;;;;8.40;100.00;98607.97;5021331;28;20685;-74
2024/01/04 00:39:48;;;;;;;0.33;0.33;;;;;;;8.47;100.00;98597.41;5017558;28;20605;-73
2024/01/04 00:42:14;;;;;;;0.67;0.40;;;;;;;8.52;100.00;98599.13;5012911;28;20650;-73
2024/01/04 00:44:41;;;;;;;0.40;0.40;;;;;;;8.47;100.00;98593.91;5018230;28;20252;-73
2024/01/04 00:47:07;;;;;;;0.20;0.20;;;;;;;8.49;100.00;98605.31;5010601;28;20300;-72
2024/01/04 00:49:34;;;;;;;0.93;0.60;;;;;;;8.48;100.00;98615.00;5024205;28;20201;-74
2024/01/04 00:52:00;;;;;;;0.60;0.40;;;;;;;8.48;100.00;98612.34;5014240;28;20272;-74
2024/01/04 00:54:26;;;;;;;0.53;0.40;;;;;;;8.46;100.00;98610.59;5017738;28;20237;-74
2024/01/04 00:56:53;;;;;;;0.40;0.40;;;;;;;8.37;100.00;98616.78;5012470;28;20206;-73
2024/01/04 00:59:19;;;;;;;0.73;0.40;;;;;;;8.45;100.00;98622.94;5020709;28;20208;-74
2024/01/04 01:01:46;;;;;;;0.63;0.40;;;;;;;8.41;100.00;98615.91;5019927;28;20204;-73
2024/01/04 01:04:12;;;;;;;0.30;0.30;;;;;;;8.55;100.00;98612.31;5017075;28;20232;-74
2024/01/04 01:06:39;;;;;;;0.43;0.30;;;;;;;8.45;100.00;98622.94;5009063;28;20590;-74
2024/01/04 01:09:05;;;;;;;0.33;0.33;;;;;;;8.36;100.00;98633.50;5026551;28;20210;-74
2024/01/04 01:11:34;;;;;;;0.30;0.30;;;;;;;8.39;100.00;98617.66;5014941;28;20205;-74
2024/01/04 01:14:00;;;;;;;0.30;0.30;;;;;;;8.48;100.00;98627.31;5012940;28;20233;-72
2024/01/04 01:16:27;;;;;;;0.33;0.30;;;;;;;8.47;100.00;98641.38;5015645;28;20206;-74
2024/01/04 01:18:53;;;;;;;0.30;0.30;;;;;;;8.43;100.00;98635.25;5024246;28;20205;-74
2024/01/04 01:21:20;;;;;;;0.40;0.40;;;;;;;8.34;100.00;98639.69;5008676;28;20202;-74
2024/01/04 01:23:46;;;;;;;0.50;0.40;;;;;;;8.31;100.00;98658.13;5013779;28;20234;-74
2024/01/04 01:26:13;;;;;;;0.23;0.23;;;;;;;8.38;100.00;98649.31;5014875;28;20242;-74
2024/01/04 01:28:39;;;;;;;0.40;0.40;;;;;;;8.24;100.00;98651.13;5022145;28;20210;-74
2024/01/04 01:31:06;;;;;;;0.67;0.30;;;;;;;8.13;100.00;98644.16;5010448;28;20206;-74
2024/01/04 01:33:33;;;;;;;0.30;0.30;;;;;;;8.05;100.00;98650.38;5016378;28;20274;-73
2024/01/04 01:36:01;;;;;;;0.43;0.40;;;;;;;8.01;100.00;98649.50;5023467;28;20312;-74
2024/01/04 01:38:28;;;;;;;0.30;0.30;;;;;;;7.98;100.00;98656.53;5022172;28;20296;-74
2024/01/04 01:40:55;;;;;;;0.90;0.40;;;;;;;8.00;100.00;98675.84;5023557;28;20196;-74
2024/01/04 01:43:21;;;;;;;0.30;0.30;;;;;;;8.06;100.00;98671.44;5023554;28;20252;-73
2024/01/04 01:45:48;;;;;;;0.40;0.40;;;;;;;8.10;100.00;98689.00;5014486;28;20290;-74
2024/01/04 01:48:14;;;;;;;0.40;0.40;;;;;;;8.36;100.00;98688.03;5017362;28;20307;-73
2024/01/04 01:50:41;;;;;;;0.97;0.50;;;;;;;8.27;100.00;98698.59;5013466;28;20212;-73
2024/01/04 01:53:08;;;;;;;0.57;0.30;;;;;;;8.43;100.00;98702.97;5010908;28;20204;-74
2024/01/04 01:55:35;;;;;;;0.47;0.33;;;;;;;8.55;100.00;98704.66;5021963;28;20252;-74
2024/01/04 01:58:02;;;;;;;0.30;0.30;;;;;;;8.62;100.00;98707.22;5020302;28;20668;-72
2024/01/04 02:00:32;;;;;;;0.43;0.40;;;;;;;8.62;100.00;98715.16;5018332;28;20206;-74
2024/01/04 02:02:58;;;;;;;0.30;0.30;;;;;;;8.62;100.00;98728.34;5019340;28;20231;-74
2024/01/04 02:05:25;;;;;;;0.57;0.30;;;;;;;8.65;100.00;98723.03;5029020;28;20295;-73
2024/01/04 02:07:51;;;;;;;0.30;0.30;;;;;;;8.67;100.00;98721.28;5019833;28;20274;-74
2024/01/04 02:10:18;;;;;;;0.30;0.30;;;;;;;8.74;100.00;98725.63;5024180;28;20232;-74
2024/01/04 02:12:44;;;;;;;0.93;0.30;;;;;;;8.73;100.00;98741.47;5013800;28;20502;-74
2024/01/04 02:15:11;;;;;;;0.90;0.50;;;;;;;8.70;100.00;98750.28;5022606;28;20221;-74
2024/01/04 02:17:39;;;;;;;0.20;0.20;;;;;;;8.69;100.00;98759.09;5018039;28;20198;-74
2024/01/04 02:20:07;;;;;;;0.40;0.30;;;;;;;8.75;100.00;98755.53;5008489;28;20238;-74
2024/01/04 02:22:35;;;;;;;0.30;0.30;;;;;;;8.72;100.00;98771.38;5018840;28;20587;-74
2024/01/04 02:25:04;;;;;;;0.30;0.30;;;;;;;8.69;100.00;98766.13;5014238;28;20235;-74
2024/01/04 02:27:30;;;;;;;0.40;0.40;;;;;;;8.59;100.00;98764.41;5018738;28;20235;-74
2024/01/04 02:29:57;;;;;;;0.30;0.30;;;;;;;8.55;100.00;98773.25;5012510;28;20200;-74
2024/01/04 02:32:23;;;;;;;0.50;0.30;;;;;;;8.45;100.00;98772.41;5004591;28;20227;-75
2024/01/04 02:34:49;;;;;;;0.80;0.47;;;;;;;8.45;100.00;98775.94;5015631;28;20275;-75
2024/01/04 02:37:16;;;;;;;0.50;0.40;;;;;;;8.45;100.00;98778.56;5019549;28;20196;-74
2024/01/04 02:39:42;;;;;;;0.90;0.40;;;;;;;8.47;100.00;98779.44;5018106;28;20595;-74
2024/01/04 02:42:09;;;;;;;0.30;0.30;;;;;;;8.41;100.00;98789.13;5009936;28;20201;-74
2024/01/04 02:44:35;;;;;;;0.40;0.40;;;;;;;8.36;100.00;98788.25;5013581;28;20530;-74
2024/01/04 02:47:02;;;;;;;0.73;0.40;;;;;;;8.39;100.00;98785.59;5013982;28;20221;-74
2024/01/04 02:49:29;;;;;;;0.40;0.40;;;;;;;8.31;100.00;98792.63;5019163;28;20500;-74
2024/01/04 02:51:55;;;;;;;0.70;0.40;;;;;;;8.24;100.00;98799.69;5010725;28;20205;-74
2024/01/04 02:54:22;;;;;;;1.03;0.50;;;;;;;8.23;100.00;98797.06;5011337;28;20259;-74
2024/01/04 02:56:48;;;;;;;1.13;0.57;;;;;;;8.31;100.00;98800.53;5013503;28;20196;-74
2024/01/04 02:59:15;;;;;;;0.30;0.30;;;;;;;8.34;100.00;98806.72;5013092;28;20291;-74
2024/01/04 03:01:43;;;;;;;0.87;0.40;;;;;;;8.37;100.00;98822.53;5011758;28;20208;-74
2024/01/04 03:04:10;;;;;;;0.90;0.50;;;;;;;8.35;100.00;98811.09;5012087;28;20222;-72
2024/01/04 03:06:37;;;;;;;1.30;0.40;;;;;;;8.32;100.00;98813.72;5012660;28;20297;-74
2024/01/04 03:09:03;;;;;;;1.00;0.40;;;;;;;8.37;100.00;98816.38;5012964;28;20285;-74
2024/01/04 03:11:29;;;;;;;0.43;0.43;;;;;;;8.32;100.00;98824.28;5013215;28;20208;-74
2024/01/04 03:13:56;;;;;;;1.13;0.70;;;;;;;8.33;100.00;98841.88;5010020;28;20248;-75
2024/01/04 03:16:22;;;;;;;0.43;0.40;;;;;;;8.32;100.00;98844.50;5009970;28;20203;-74
2024/01/04 03:18:49;;;;;;;0.40;0.40;;;;;;;8.38;100.00;98850.66;5014169;28;20209;-74
2024/01/04 03:21:17;;;;;;;0.50;0.40;;;;;;;8.36;100.00;98859.47;5006049;28;20225;-74
2024/01/04 03:23:43;;;;;;;0.33;0.33;;;;;;;8.43;100.00;98858.59;5010765;28;20609;-74
2024/01/04 03:26:09;;;;;;;0.30;0.30;;;;;;;8.39;100.00;98862.97;5013592;28;20283;-74
2024/01/04 03:28:36;;;;;;;0.87;0.57;;;;;;;8.54;100.00;98855.91;5012693;28;20295;-74
2024/01/04 03:31:02;;;;;;;0.33;0.33;;;;;;;8.47;100.00;98858.56;5012169;28;20212;-74
2024/01/04 03:33:29;;;;;;;0.30;0.30;;;;;;;8.52;100.00;98860.31;5012068;28;20206;-74
2024/01/04 03:35:56;;;;;;;0.50;0.50;;;;;;;8.52;100.00;98848.00;5011957;28;20210;-74
2024/01/04 03:38:22;;;;;;;0.30;0.30;;;;;;;8.52;100.00;98848.00;5014238;28;20295;-75
2024/01/04 03:40:49;;;;;;;0.57;0.40;;;;;;;8.47;100.00;98853.31;5007012;28;20205;-74
2024/01/04 03:43:15;;;;;;;0.40;0.40;;;;;;;8.50;100.00;98855.06;5012652;28;20199;-73
2024/01/04 03:45:41;;;;;;;0.67;0.30;;;;;;;8.51;100.00;98856.81;5014405;28;20210;-74
2024/01/04 03:48:08;;;;;;;0.30;0.30;;;;;;;8.57;100.00;98854.13;5011117;28;20415;-74
2024/01/04 03:50:35;;;;;;;0.40;0.40;;;;;;;8.58;100.00;98853.25;5007867;28;20289;-73
2024/01/04 03:53:02;;;;;;;0.83;0.37;;;;;;;8.67;100.00;98865.53;5010774;28;20219;-74
2024/01/04 03:55:28;;;;;;;0.40;0.30;;;;;;;8.66;100.00;98867.28;5017169;28;20234;-72
2024/01/04 03:57:55;;;;;;;0.83;0.40;;;;;;;8.72;100.00;98869.91;5012204;28;20198;-74
2024/01/04 04:00:21;;;;;;;0.70;0.70;;;;;;;8.67;100.00;98870.81;5012967;28;20316;-74
2024/01/04 04:02:48;;;;;;;0.30;0.30;;;;;;;8.70;100.00;98876.97;5015992;28;20823;-73
2024/01/04 04:05:14;;;;;;;0.60;0.40;;;;;;;8.63;100.00;98885.78;5009774;28;20407;-73
2024/01/04 04:07:41;;;;;;;0.30;0.30;;;;;;;8.58;100.00;98887.56;5008643;28;20217;-74
2024/01/04 04:10:08;;;;;;;0.50;0.40;;;;;;;8.61;100.00;98887.56;5013365;28;20204;-74
2024/01/04 04:12:35;;;;;;;0.97;0.40;;;;;;;8.56;100.00;98891.97;5014168;28;20238;-74
2024/01/04 04:15:01;;;;;;;0.70;0.30;;;;;;;8.56;100.00;98902.53;5008235;28;20220;-74
2024/01/04 04:17:32;;;;;;;0.30;0.30;;;;;;;8.53;100.00;98912.22;5012457;28;20335;-74
2024/01/04 04:19:59;;;;;;;0.40;0.40;;;;;;;8.56;100.00;98902.53;5012433;28;20203;-74
2024/01/04 04:22:25;;;;;;;0.30;0.30;;;;;;;8.58;100.00;98913.94;5011859;28;20205;-73
2024/01/04 04:24:52;;;;;;;0.73;0.50;;;;;;;8.57;100.00;98920.09;5013457;28;20224;-73
2024/01/04 04:27:18;;;;;;;2.10;0.40;;;;;;;8.52;100.00;98928.91;4997287;28;20273;-74
2024/01/04 04:29:45;;;;;;;0.77;0.40;;;;;;;8.47;100.00;98929.81;5016423;28;20196;-75
2024/01/04 04:32:11;;;;;;;1.50;0.37;;;;;;;8.38;100.00;98927.16;5009437;28;20203;-74
2024/01/04 04:34:38;;;;;;;0.50;0.33;;;;;;;8.45;100.00;98938.63;5008718;28;20304;-74
2024/01/04 04:37:05;;;;;;;0.77;0.50;;;;;;;8.43;100.00;98935.09;5014016;28;20219;-74
2024/01/04 04:39:31;;;;;;;0.77;0.60;;;;;;;8.34;100.00;98933.31;5012952;28;20226;-74
2024/01/04 04:41:58;;;;;;;2.13;0.40;;;;;;;8.29;100.00;98940.34;5016120;28;20208;-75
2024/01/04 04:44:24;;;;;;;0.50;0.50;;;;;;;8.30;100.00;98942.09;5014377;28;20307;-74
2024/01/04 04:46:52;;;;;;;0.37;0.37;;;;;;;8.31;100.00;98942.97;5012833;28;20196;-74
2024/01/04 04:49:18;;;;;;;1.70;0.40;;;;;;;8.33;100.00;98946.47;5008378;28;20657;-74
2024/01/04 04:51:49;;;;;;;0.40;0.40;;;;;;;8.36;100.00;98944.75;5010482;28;20625;-74
2024/01/04 04:54:16;;;;;;;0.20;0.20;;;;;;;8.36;100.00;98944.75;5013935;28;20306;-74
2024/01/04 04:56:43;;;;;;;0.47;0.40;;;;;;;8.44;100.00;98948.28;5003697;28;20240;-74
2024/01/04 04:59:11;;;;;;;0.30;0.30;;;;;;;8.38;100.00;98947.38;5016947;28;20200;-74
2024/01/04 05:01:39;;;;;;;0.40;0.40;;;;;;;8.46;100.00;98958.84;5011452;28;20238;-74
2024/01/04 05:04:06;;;;;;;1.07;0.50;;;;;;;8.36;100.00;98964.97;5010004;28;20226;-74
2024/01/04 05:06:32;;;;;;;0.30;0.30;;;;;;;8.33;100.00;98955.31;5009870;28;20277;-74
2024/01/04 05:08:59;;;;;;;0.87;0.40;;;;;;;8.30;100.00;98957.03;5018902;28;20275;-74
2024/01/04 05:11:26;;;;;;;0.50;0.40;;;;;;;8.29;100.00;98971.09;5010027;28;20288;-74
2024/01/04 05:13:54;;;;;;;0.93;0.40;;;;;;;8.29;100.00;98971.97;5013409;28;20306;-74
2024/01/04 05:16:21;;;;;;;0.83;0.50;;;;;;;8.23;100.00;98966.72;5013031;28;20207;-74
2024/01/04 05:18:47;;;;;;;0.63;0.30;;;;;;;8.18;100.00;98971.13;5014399;28;20674;-74
2024/01/04 05:21:14;;;;;;;0.30;0.30;;;;;;;8.17;100.00;98980.78;5016878;28;20286;-74
2024/01/04 05:23:40;;;;;;;2.60;0.43;;;;;;;8.10;100.00;98973.75;5011710;28;20232;-74
2024/01/04 05:26:07;;;;;;;0.50;0.50;;;;;;;8.25;100.00;98988.69;5009575;28;20255;-74
2024/01/04 05:28:33;;;;;;;0.40;0.40;;;;;;;8.22;100.00;99003.63;5010581;28;20228;-74
2024/01/04 05:31:00;;;;;;;0.50;0.30;;;;;;;8.14;100.00;99004.50;5012078;28;20213;-74
2024/01/04 05:33:27;;;;;;;0.30;0.30;;;;;;;8.01;100.00;98996.59;5007991;28;20209;-74
2024/01/04 05:35:53;;;;;;;0.50;0.40;;;;;;;7.98;100.00;99001.84;5004105;28;20211;-74
2024/01/04 05:38:22;;;;;;;0.43;0.33;;;;;;;7.86;100.00;99011.50;5006339;28;20254;-74
2024/01/04 05:40:48;;;;;;;0.43;0.30;;;;;;;7.99;100.00;99017.66;5007386;28;20240;-73
2024/01/04 05:43:15;;;;;;;3.97;0.50;;;;;;;8.02;100.00;99017.69;5007777;28;20233;-74
2024/01/04 05:45:41;;;;;;;1.10;0.37;;;;;;;8.20;100.00;99023.84;5003607;28;20201;-74
2024/01/04 05:48:08;;;;;;;0.30;0.30;;;;;;;8.24;100.00;99018.56;5006702;28;20315;-74
2024/01/04 05:50:34;;;;;;;1.03;0.40;;;;;;;8.23;100.00;99014.19;5006923;28;20211;-74
2024/01/04 05:53:01;;;;;;;0.63;0.40;;;;;;;8.26;100.00;99029.13;5006457;28;20200;-74
2024/01/04 05:55:27;;;;;;;0.40;0.40;;;;;;;8.25;100.00;99024.72;5007689;28;20232;-74
2024/01/04 05:57:54;;;;;;;1.43;0.40;;;;;;;8.28;100.00;99028.25;5006258;28;20299;-73
2024/01/04 06:00:20;;;;;;;0.40;0.40;;;;;;;8.17;100.00;99024.72;5009045;28;20200;-74
2024/01/04 06:02:47;;;;;;;0.67;0.40;;;;;;;8.18;100.00;99044.94;5016416;28;20200;-75
2024/01/04 06:05:14;;;;;;;0.70;0.40;;;;;;;8.25;100.00;99037.91;5015854;28;20354;-74
2024/01/04 06:07:41;;;;;;;1.90;0.50;;;;;;;8.30;100.00;99046.72;5015306;28;20875;-74
2024/01/04 06:10:07;;;;;;;0.30;0.30;;;;;;;8.23;100.00;99048.47;5019653;28;20667;-74
2024/01/04 06:12:34;;;;;;;0.63;0.40;;;;;;;8.34;100.00;99053.78;5015782;28;20209;-74
2024/01/04 06:15:03;;;;;;;0.40;0.40;;;;;;;8.31;100.00;99046.72;5018234;28;20777;-74
2024/01/04 06:17:29;;;;;;;0.37;0.37;;;;;;;8.33;100.00;99065.19;5015983;28;20205;-74
2024/01/04 06:19:56;;;;;;;1.00;0.67;;;;;;;8.39;100.00;99076.63;5007318;28;20254;-74
2024/01/04 06:22:22;;;;;;;0.40;0.40;;;;;;;8.42;100.00;99071.41;5016551;28;20200;-72
2024/01/04 06:24:49;;;;;;;0.30;0.30;;;;;;;8.46;100.00;99075.78;5018871;22;20236;-71
2024/01/04 06:27:15;;;;;;;1.20;0.57;;;;;;;8.47;100.00;99085.47;4999545;28;20204;-71
2024/01/04 06:29:44;;;;;;;0.80;0.43;;;;;;;8.44;100.00;99097.78;4996497;28;20266;-72
2024/01/04 06:32:10;;;;;;;2.50;0.50;;;;;;;8.42;100.00;99095.13;4976017;28;20285;-72
2024/01/04 06:34:37;;;;;;;0.80;0.40;;;;;;;8.45;100.00;99097.78;4987198;28;20234;-70
2024/01/04 06:37:04;;;;;;;1.80;0.43;;;;;;;8.42;100.00;99102.19;4979101;28;20269;-70
2024/01/04 06:39:30;;;;;;;0.37;0.37;;;;;;;8.44;100.00;99097.78;4979619;28;20221;-71
2024/01/04 06:41:56;;;;;;;0.70;0.47;;;;;;;8.39;100.00;99112.69;4979347;28;20200;-71
2024/01/04 06:44:23;;;;;;;1.60;1.17;;;;;;;8.40;100.00;99109.19;4980224;28;20236;-72
2024/01/04 06:47:03;;;;;;;2.10;0.40;;;;;;;8.47;100.00;99121.53;4973820;28;20205;-71
2024/01/04 06:49:29;;;;;;;0.83;0.40;;;;;;;8.38;100.00;99122.38;4975322;28;20234;-71
2024/01/04 06:51:56;;;;;;;2.33;0.60;;;;;;;8.36;100.00;99134.66;4977516;28;20205;-71
2024/01/04 06:54:23;;;;;;;1.50;0.50;;;;;;;8.38;100.00;99140.81;4975190;28;20383;-71
2024/01/04 06:56:49;;;;;;;1.60;0.50;;;;;;;8.40;100.00;99143.47;4958693;28;20201;-71
2024/01/04 06:59:15;;;;;;;0.60;0.60;;;;;;;8.37;100.00;99146.97;4979183;28;20201;-71
2024/01/04 07:01:42;;;;;;;2.23;0.70;;;;;;;8.34;100.00;99146.97;4969880;28;20668;-73
2024/01/04 07:04:08;;;;;;;2.87;0.60;;;;;;;8.31;100.00;99146.94;4976836;28;20701;-71
2024/01/04 07:06:35;;;;;;;1.70;0.53;;;;;;;8.21;100.00;99150.44;4970536;28;20244;-72
2024/01/04 07:09:02;;;;;;;0.50;0.43;;;;;;;8.37;100.00;99154.91;4972971;28;20719;-73
2024/01/04 07:11:31;;;;;;;1.00;0.50;;;;;;;8.39;100.00;99168.09;4972655;28;20634;-72
2024/01/04 07:13:57;;;;;;;0.50;0.50;;;;;;;8.37;100.00;99169.84;4964661;28;20217;-74
2024/01/04 07:16:24;;;;;;;0.70;0.50;;;;;;;8.33;100.00;99168.03;4957951;28;20694;-72
2024/01/04 07:18:50;;;;;;;1.10;0.47;;;;;;;8.36;100.00;99174.25;4967236;28;20285;-72
2024/01/04 07:21:17;;;;;;;0.50;0.40;;;;;;;8.38;100.00;99185.69;4979688;28;20210;-73
2024/01/04 07:23:44;;;;;;;1.60;0.50;;;;;;;8.41;100.00;99190.09;4969600;28;20257;-73
2024/01/04 07:26:10;;;;;;;0.77;0.63;;;;;;;8.44;100.00;99188.34;4976809;28;20295;-72
2024/01/04 07:28:37;;;;;;;1.63;0.60;;;;;;;8.52;100.00;99187.50;4975735;28;20227;-72
2024/01/04 07:31:03;;;;;;;2.63;0.73;;;;;;;8.47;100.00;99185.72;4966336;28;20658;-72
2024/01/04 07:33:29;;;;;;;1.53;0.60;;;;;;;8.38;100.00;99187.44;4981045;28;20205;-72
2024/01/04 07:35:56;;;;;;;1.97;0.50;;;;;;;8.31;100.00;99185.63;4978995;28;20230;-73
2024/01/04 07:38:22;;;;;;;1.03;0.60;;;;;;;8.36;100.00;99192.72;4979983;28;20208;-73
2024/01/04 07:40:49;;;;;;;1.17;0.70;;;;;;;8.35;100.00;99200.63;4977517;28;20234;-71
2024/01/04 07:43:15;;;;;;;1.07;0.53;;;;;;;8.47;100.00;99200.69;4984766;28;20228;-74
2024/01/04 07:45:42;;;;;;;0.50;0.47;;;;;;;8.52;100.00;99214.75;4965823;28;20335;-71
2024/01/04 07:48:11;;;;;;;0.53;0.50;;;;;;;8.53;100.00;99215.63;4978954;28;20226;-71
2024/01/04 07:50:38;;;;;;;1.53;0.57;;;;;;;8.53;100.00;99213.00;4978948;28;20674;-71
2024/01/04 07:53:04;;;;;;;2.23;0.77;;;;;;;8.51;100.00;99220.03;4965020;28;20293;-72
2024/01/04 07:55:31;;;;;;;1.47;0.50;;;;;;;8.61;100.00;99222.69;4972662;28;20257;-70
2024/01/04 07:57:57;;;;;;;0.60;0.40;;;;;;;8.61;100.00;99235.00;4980299;28;20212;-72
2024/01/04 08:00:23;;;;;;;0.80;0.50;;;;;;;8.67;100.00;99224.47;4979399;28;20450;-72
2024/01/04 08:02:51;;;;;;;1.80;0.50;;;;;;;8.68;100.00;99226.22;4982871;28;20290;-72
2024/01/04 08:05:18;;;;;;;1.67;0.70;;;;;;;8.68;100.00;99213.91;4974294;28;20847;-71
2024/01/04 08:07:44;;;;;;;0.73;0.60;;;;;;;8.68;100.00;99226.22;4973136;28;20231;-71
2024/01/04 08:10:11;;;;;;;1.43;0.53;;;;;;;8.63;100.00;99231.50;4969874;28;20215;-71
2024/01/04 08:12:40;;;;;;;1.23;0.50;;;;;;;8.63;100.00;99233.25;4973273;28;20203;-71
2024/01/04 08:15:08;;;;;;;0.77;0.50;;;;;;;8.66;100.00;99234.13;4980451;28;20336;-72
2024/01/04 08:17:35;;;;;;;0.93;0.77;;;;;;;8.68;100.00;99240.28;4959701;28;20207;-71
2024/01/04 08:20:03;;;;;;;1.53;0.40;;;;;;;8.67;100.00;99227.09;4974410;28;20682;-72
2024/01/04 08:22:30;;;;;;;0.70;0.50;;;;;;;8.67;100.00;99243.81;4976594;28;20744;-71
2024/01/04 08:24:59;;;;;;;0.40;0.40;;;;;;;8.67;100.00;99243.81;4983740;28;20224;-71
2024/01/04 08:27:25;;;;;;;0.50;0.50;;;;;;;8.72;100.00;99242.06;4982525;28;20677;-71
2024/01/04 08:29:51;;;;;;;0.50;0.40;;;;;;;8.72;100.00;99251.75;4975570;28;20229;-71
2024/01/04 08:32:18;;;;;;;0.40;0.40;;;;;;;8.81;100.00;99249.16;4976530;28;20208;-72
2024/01/04 08:34:44;;;;;;;0.40;0.40;;;;;;;8.92;100.00;99268.53;4974406;28;20229;-72
2024/01/04 08:37:13;;;;;;;0.47;0.37;;;;;;;9.00;100.00;99266.75;4972717;28;20205;-73
2024/01/04 08:39:40;;;;;;;0.53;0.40;;;;;;;9.03;100.00;99268.53;4977163;28;20231;-73
2024/01/04 08:42:06;;;;;;;0.43;0.40;;;;;;;9.03;100.00;99268.53;4972370;28;20205;-73
2024/01/04 08:44:33;;;;;;;0.40;0.40;;;;;;;9.00;100.00;99273.81;4972748;28;20230;-72
2024/01/04 08:46:59;;;;;;;0.40;0.40;;;;;;;8.99;100.00;99279.97;4964608;28;20202;-71
2024/01/04 08:49:26;;;;;;;0.40;0.40;;;;;;;8.97;100.00;99285.25;4964838;28;20226;-72
2024/01/04 08:51:53;;;;;;;1.50;0.50;;;;;;;8.95;100.00;99272.91;4967404;28;20307;-73
2024/01/04 08:54:19;;;;;;;0.50;0.47;;;;;;;8.95;100.00;99283.47;4973959;28;20230;-73
2024/01/04 08:56:46;;;;;;;0.40;0.40;;;;;;;8.98;100.00;99291.41;4969021;28;20678;-72
2024/01/04 08:59:12;;;;;;;0.57;0.40;;;;;;;9.00;100.00;99289.66;4967315;28;20209;-73
2024/01/04 09:01:39;;;;;;;0.40;0.40;;;;;;;9.07;100.00;99294.94;4968292;28;20476;-73
2024/01/04 09:04:05;;;;;;;0.60;0.40;;;;;;;9.10;100.00;99294.94;4968825;28;20227;-73
2024/01/04 09:06:33;;;;;;;0.50;0.40;;;;;;;9.16;100.00;99301.09;4968969;28;20692;-72
2024/01/04 09:08:59;;;;;;;1.53;0.90;;;;;;;9.14;100.00;99309.03;4969910;28;20217;-73
2024/01/04 09:11:28;;;;;;;1.77;1.13;;;;;;;9.13;100.00;99311.66;4963743;28;20203;-74
2024/01/04 09:13:54;;;;;;;1.23;0.43;;;;;;;9.09;100.00;99316.94;4956943;28;20662;-73
2024/01/04 09:16:22;;;;;;;0.63;0.50;;;;;;;8.96;100.00;99327.50;4969454;28;20211;-73
2024/01/04 09:18:49;;;;;;;0.30;0.30;;;;;;;8.95;100.00;99328.38;4962601;28;20199;-74
2024/01/04 09:21:15;;;;;;;0.40;0.40;;;;;;;8.94;100.00;99327.50;4966911;28;20202;-73
2024/01/04 09:23:42;;;;;;;0.63;0.50;;;;;;;8.93;100.00;99330.13;4952695;28;20394;-73
2024/01/04 09:26:09;;;;;;;0.70;0.40;;;;;;;9.02;100.00;99322.22;4973534;28;20210;-73
2024/01/04 09:28:36;;;;;;;0.40;0.40;;;;;;;9.04;100.00;99326.63;4977495;28;20492;-73
2024/01/04 09:31:02;;;;;;;0.67;0.40;;;;;;;9.04;100.00;99342.47;4974710;28;20256;-73
2024/01/04 09:33:29;;;;;;;0.57;0.40;;;;;;;9.09;100.00;99345.13;4974445;28;20285;-73
2024/01/04 09:35:55;;;;;;;1.83;0.47;;;;;;;9.10;100.00;99345.13;4976090;28;20592;-74
2024/01/04 09:38:22;;;;;;;0.30;0.30;;;;;;;9.26;100.00;99358.38;4977735;28;20682;-75
2024/01/04 09:40:51;;;;;;;1.07;0.40;;;;;;;9.32;100.00;99354.00;4958004;28;20208;-70
2024/01/04 09:43:19;;;;;;;2.13;0.40;;;;;;;9.30;100.00;99362.78;4973359;28;20205;-73
2024/01/04 09:45:47;;;;;;;0.63;0.50;;;;;;;9.32;100.00;99361.91;4974558;28;20257;-73
2024/01/04 09:48:18;;;;;;;0.30;0.30;;;;;;;9.37;100.00;99376.00;4979434;28;20635;-72
2024/01/04 09:50:57;;;;;;;1.60;0.43;;;;;;;9.45;100.00;99380.44;4968331;28;20753;-72
2024/01/04 09:53:24;;;;;;;0.40;0.40;;;;;;;9.53;100.00;99376.03;4973214;28;20298;-72
2024/01/04 09:55:50;;;;;;;0.30;0.30;;;;;;;9.63;100.00;99380.47;4966008;28;20314;-72
2024/01/04 09:58:17;;;;;;;0.30;0.30;;;;;;;9.70;100.00;99390.16;4972773;28;20204;-73
2024/01/04 10:00:43;;;;;;;1.43;0.40;;;;;;;9.78;100.00;99390.16;4955545;28;20240;-72
2024/01/04 10:03:12;;;;;;;0.53;0.40;;;;;;;9.72;100.00;99396.31;4972772;28;20210;-72
2024/01/04 10:05:39;;;;;;;0.43;0.40;;;;;;;9.78;100.00;99400.72;4971913;28;20223;-72
2024/01/04 10:08:33;;;;;;;0.30;0.30;;;;;;;9.72;100.00;99399.84;4972701;28;20202;-72
2024/01/04 10:11:12;;;;;;;0.30;0.30;;;;;;;9.71;100.00;99411.31;4969193;28;20201;-73
2024/01/04 10:13:39;;;;;;;0.93;0.40;;;;;;;9.72;100.00;99409.56;4975505;28;20210;-73
2024/01/04 10:16:05;;;;;;;1.00;0.40;;;;;;;9.69;100.00;99410.44;4960644;28;20223;-72
2024/01/04 10:18:35;;;;;;;0.30;0.30;;;;;;;9.88;100.00;99416.59;4972042;28;20204;-72
2024/01/04 10:21:04;;;;;;;0.50;0.50;;;;;;;9.84;100.00;99422.78;4948507;28;20584;-75
2024/01/04 10:23:31;;;;;;;0.60;0.50;;;;;;;9.94;100.00;99416.59;4967592;28;20211;-73
2024/01/04 10:26:08;;;;;;;1.03;0.40;;;;;;;10.03;100.00;99424.56;4975308;28;20228;-72
2024/01/04 10:28:38;;;;;;;0.90;0.50;;;;;;;10.00;100.00;99434.22;4978038;28;20211;-72
2024/01/04 10:31:07;;;;;;;0.50;0.50;;;;;;;9.97;100.00;99436.88;4973324;28;20636;-72
2024/01/04 10:33:36;;;;;;;0.87;0.70;;;;;;;9.85;100.00;99429.81;4978809;28;20210;-72
2024/01/04 10:36:11;;;;;;;0.63;0.50;;;;;;;9.80;100.00;99434.22;4977700;28;20314;-73
2024/01/04 10:38:38;;;;;;;1.00;0.40;;;;;;;9.81;100.00;99438.63;4973726;28;20704;-73
2024/01/04 10:41:04;;;;;;;0.83;0.50;;;;;;;9.82;100.00;99434.22;4977396;28;20843;-73
2024/01/04 10:43:33;;;;;;;2.17;0.63;;;;;;;9.85;100.00;99439.50;4961292;28;20666;-72
2024/01/04 10:46:08;;;;;;;1.63;0.60;;;;;;;9.89;100.00;99441.28;4980510;28;20523;-74
2024/01/04 10:48:35;;;;;;;2.30;0.63;;;;;;;9.94;100.00;99445.69;4976623;28;20706;-72
2024/01/04 10:51:04;;;;;;;0.73;0.53;;;;;;;9.93;100.00;99449.22;4978613;28;20212;-72
2024/01/04 10:53:35;;;;;;;0.77;0.57;;;;;;;9.86;100.00;99441.28;4956796;28;20213;-72
2024/01/04 10:56:05;;;;;;;1.37;0.47;;;;;;;9.90;100.00;99443.94;4975624;28;20704;-72
2024/01/04 10:58:40;;;;;;;1.37;0.60;;;;;;;9.93;100.00;99445.69;4984062;28;20622;-72
2024/01/04 11:01:09;;;;;;;2.83;0.80;;;;;;;9.80;100.00;99446.56;4977692;28;20275;-72
2024/01/04 11:03:37;;;;;;;1.67;0.73;;;;;;;9.87;100.00;99454.50;4974086;28;20265;-72
2024/01/04 11:06:04;;;;;;;2.87;0.93;;;;;;;9.78;100.00;99451.84;4987072;28;20222;-73
2024/01/04 11:08:33;;;;;;;2.13;0.80;;;;;;;9.72;100.00;99457.13;4979023;28;20203;-73
2024/01/04 11:11:00;;;;;;;1.77;0.70;;;;;;;9.71;100.00;99455.38;4979305;28;20205;-73
2024/01/04 11:13:26;;;;;;;3.23;0.80;;;;;;;9.66;100.00;99446.56;4966462;28;20288;-71
2024/01/04 11:15:57;;;;;;;3.83;0.90;;;;;;;9.68;100.00;99458.00;4969968;28;20657;-71
2024/01/04 11:18:47;;;;;;;1.23;0.80;;;;;;;9.65;100.00;99453.59;4969694;28;20257;-71
2024/01/04 11:21:23;;;;;;;2.30;0.60;;;;;;;9.74;100.00;99455.38;4971040;28;20256;-70
2024/01/04 11:24:15;;;;;;;1.40;0.60;;;;;;;9.86;100.00;99441.28;4950706;28;20655;-71
2024/01/04 11:26:56;;;;;;;2.43;0.83;;;;;;;9.96;100.00;99459.78;4969600;28;20209;-71
2024/01/04 11:29:23;;;;;;;2.67;1.30;;;;;;;10.14;100.00;99448.34;4958514;28;20233;-71
2024/01/04 11:31:49;;;;;;;2.13;1.00;;;;;;;10.28;100.00;99451.03;4976621;28;20203;-72
2024/01/04 11:34:16;;;;;;;3.13;0.90;;;;;;;10.40;100.00;99451.00;4974160;28;20746;-71